createdAt,value
2022-10-02T00:04:02.449Z,1.25
2022-10-02T00:06:41.689Z,1.40
2022-10-02T00:09:15.769Z,2.08
2022-10-02T00:11:46.968Z,1.35
2022-10-02T00:14:17.276Z,1.27
2022-10-02T00:16:48.471Z,1.52
2022-10-02T00:19:18.748Z,1.08
2022-10-02T00:22:02.910Z,1.33
2022-10-02T00:24:38.525Z,1.15
2022-10-02T00:27:27.221Z,0.93
2022-10-02T00:29:57.750Z,1.33
2022-10-02T00:32:31.316Z,0.80
2022-10-02T00:35:24.334Z,1.70
2022-10-02T00:38:00.024Z,1.17
2022-10-02T00:40:43.253Z,0.82
2022-10-02T00:43:23.298Z,1.60
2022-10-02T00:46:22.952Z,1.75
2022-10-02T00:49:04.308Z,0.80
2022-10-02T00:51:52.292Z,1.88
2022-10-02T00:54:45.031Z,2.35
2022-10-02T00:57:22.366Z,1.83
2022-10-02T01:00:01.598Z,1.50
2022-10-02T01:02:50.676Z,2.20
2022-10-02T01:05:19.281Z,1.52
2022-10-02T01:07:52.221Z,1.58
2022-10-02T01:10:19.948Z,1.45
2022-10-02T01:12:47.160Z,1.60
2022-10-02T01:15:16.916Z,0.93
2022-10-02T01:17:46.633Z,0.70
2022-10-02T01:20:16.137Z,3.22
2022-10-02T01:22:54.108Z,1.00
2022-10-02T01:25:22.947Z,1.90
2022-10-02T01:27:52.515Z,1.13
2022-10-02T01:30:21.055Z,2.10
2022-10-02T01:32:50.437Z,1.17
2022-10-02T01:35:20.973Z,1.50
2022-10-02T01:37:51.103Z,0.93
2022-10-02T01:40:27.499Z,1.52
2022-10-02T01:42:58.635Z,2.20
2022-10-02T01:45:35.949Z,2.33
2022-10-02T01:48:12.558Z,2.70
2022-10-02T01:50:52.921Z,2.35
2022-10-02T01:53:28.772Z,3.25
2022-10-02T01:56:09.528Z,1.75
2022-10-02T01:58:45.077Z,2.95
2022-10-02T02:01:22.655Z,2.42
2022-10-02T02:03:59.036Z,1.17
2022-10-02T02:06:30.180Z,1.77
2022-10-02T02:09:06.572Z,1.52
2022-10-02T02:11:39.707Z,1.75
2022-10-02T02:14:12.769Z,1.13
2022-10-02T02:16:43.298Z,1.35
2022-10-02T02:19:18.773Z,1.85
2022-10-02T02:21:49.061Z,3.80
2022-10-02T02:24:23.572Z,3.05
2022-10-02T02:26:58.108Z,1.33
2022-10-02T02:29:29.547Z,2.53
2022-10-02T02:31:57.363Z,2.28
2022-10-02T02:34:31.211Z,1.35
2022-10-02T02:37:04.964Z,1.77
2022-10-02T02:39:37.141Z,0.90
2022-10-02T02:42:10.120Z,3.38
2022-10-02T02:44:41.872Z,1.48
2022-10-02T02:47:12.935Z,1.70
2022-10-02T02:49:49.446Z,1.67
2022-10-02T02:52:21.220Z,1.63
2022-10-02T02:54:53.088Z,1.83
2022-10-02T02:57:28.349Z,1.50
2022-10-02T02:59:57.942Z,2.53
2022-10-02T03:02:25.142Z,1.42
2022-10-02T03:04:52.360Z,1.48
2022-10-02T03:07:19.974Z,1.52
2022-10-02T03:09:56.797Z,1.85
2022-10-02T03:12:38.633Z,2.13
2022-10-02T03:15:21.352Z,1.52
2022-10-02T03:18:03.159Z,2.05
2022-10-02T03:20:36.703Z,1.83
2022-10-02T03:23:12.148Z,1.75
2022-10-02T03:25:44.743Z,1.25
2022-10-02T03:28:31.736Z,1.92
2022-10-02T03:31:05.549Z,3.45
2022-10-02T03:33:36.418Z,1.13
2022-10-02T03:36:04.701Z,1.15
2022-10-02T03:38:33.245Z,2.97
2022-10-02T03:41:00.400Z,1.75
2022-10-02T03:43:30.736Z,1.55
2022-10-02T03:45:57.949Z,2.75
2022-10-02T03:48:25.275Z,2.58
2022-10-02T03:50:52.536Z,3.83
2022-10-02T03:53:22.028Z,2.55
2022-10-02T03:55:55.202Z,2.35
2022-10-02T03:58:22.415Z,4.70
2022-10-02T04:00:58.743Z,2.65
2022-10-02T04:03:29.527Z,2.13
2022-10-02T04:06:00.981Z,2.05
2022-10-02T04:08:34.508Z,4.10
2022-10-02T04:11:08.435Z,1.80
2022-10-02T04:13:39.613Z,3.55
2022-10-02T04:16:14.824Z,1.88
2022-10-02T04:18:52.623Z,2.05
2022-10-02T04:21:31.272Z,1.30
2022-10-02T04:24:06.728Z,2.63
2022-10-02T04:26:37.590Z,3.83
2022-10-02T04:29:13.943Z,2.63
2022-10-02T04:31:42.569Z,3.17
2022-10-02T04:34:13.004Z,2.10
2022-10-02T04:36:47.869Z,1.23
2022-10-02T04:39:46.891Z,0.90
2022-10-02T04:42:27.591Z,2.55
2022-10-02T04:45:09.116Z,1.00
2022-10-02T04:47:56.558Z,1.25
2022-10-02T04:50:38.040Z,3.17
2022-10-02T04:53:21.536Z,2.50
2022-10-02T04:56:21.774Z,2.65
2022-10-02T04:59:01.487Z,1.60
2022-10-02T05:01:40.790Z,2.08
2022-10-02T05:04:47.236Z,1.88
2022-10-02T05:07:32.581Z,2.72
2022-10-02T05:10:10.274Z,4.68
2022-10-02T05:12:50.645Z,2.25
2022-10-02T05:15:33.529Z,3.17
2022-10-02T05:18:17.146Z,4.45
2022-10-02T05:21:07.333Z,4.43
2022-10-02T05:23:49.970Z,5.95
2022-10-02T05:26:50.351Z,2.22
2022-10-02T05:29:30.558Z,5.85
2022-10-02T05:32:16.016Z,6.05
2022-10-02T05:35:00.701Z,5.13
2022-10-02T05:37:47.453Z,6.22
2022-10-02T05:40:21.444Z,7.07
2022-10-02T05:42:57.667Z,5.55
2022-10-02T05:45:29.124Z,3.90
2022-10-02T05:48:08.218Z,3.70
2022-10-02T05:50:37.880Z,4.95
2022-10-02T05:53:14.149Z,6.90
2022-10-02T05:55:48.102Z,5.25
2022-10-02T05:58:23.155Z,6.93
2022-10-02T06:00:56.369Z,3.25
2022-10-02T06:03:31.068Z,2.70
2022-10-02T06:06:03.845Z,2.10
2022-10-02T06:11:11.416Z,2.95
2022-10-02T06:13:45.598Z,2.58
2022-10-02T06:18:46.748Z,2.05
2022-10-02T06:21:23.725Z,3.22
2022-10-02T06:23:56.352Z,1.75
2022-10-02T06:26:28.977Z,2.70
2022-10-02T06:29:01.335Z,2.38
2022-10-02T06:31:38.003Z,2.60
2022-10-02T06:34:10.759Z,3.53
2022-10-02T06:36:57.472Z,3.90
2022-10-02T06:39:36.819Z,1.63
2022-10-02T06:42:17.619Z,2.35
2022-10-02T06:44:53.657Z,4.00
2022-10-02T06:47:32.833Z,3.08
2022-10-02T06:50:16.561Z,2.78
2022-10-02T06:52:53.192Z,8.70
2022-10-02T06:55:40.363Z,4.05
2022-10-02T06:58:30.430Z,3.80
2022-10-02T07:01:08.015Z,4.07
2022-10-02T07:04:05.934Z,4.53
2022-10-02T07:06:45.612Z,3.10
2022-10-02T07:09:39.840Z,4.70
2022-10-02T07:12:26.375Z,6.43
2022-10-02T07:15:11.855Z,7.93
2022-10-02T07:17:50.756Z,7.90
2022-10-02T07:20:31.914Z,7.95
2022-10-02T07:23:32.896Z,8.23
2022-10-02T07:26:12.139Z,5.55
2022-10-02T07:28:46.470Z,4.22
2022-10-02T07:31:26.611Z,5.47
2022-10-02T07:34:08.235Z,1.38
2022-10-02T07:36:45.751Z,8.80
2022-10-02T07:39:26.840Z,11.57
2022-10-02T07:42:24.664Z,23.88
2022-10-02T07:45:30.601Z,9.52
2022-10-02T07:48:31.314Z,14.13
2022-10-02T07:51:22.137Z,10.02
2022-10-02T07:53:55.131Z,8.40
2022-10-02T07:56:23.513Z,7.75
2022-10-02T07:58:55.497Z,8.15
2022-10-02T08:01:26.939Z,17.05
2022-10-02T08:03:57.019Z,10.63
2022-10-02T08:06:24.171Z,21.52
2022-10-02T08:08:55.114Z,7.43
2022-10-02T08:11:27.201Z,12.80
2022-10-02T08:13:57.237Z,10.75
2022-10-02T08:16:30.667Z,15.63
2022-10-02T08:19:02.879Z,13.75
2022-10-02T08:21:35.876Z,16.90
2022-10-02T08:24:11.008Z,12.95
2022-10-02T08:26:43.479Z,9.75
2022-10-02T08:29:17.460Z,12.00
2022-10-02T08:31:46.372Z,11.68
2022-10-02T08:34:17.347Z,10.57
2022-10-02T08:37:02.443Z,13.02
2022-10-02T08:39:48.959Z,9.45
2022-10-02T08:42:55.743Z,7.05
2022-10-02T08:45:58.743Z,13.48
2022-10-02T08:49:10.285Z,12.60
2022-10-02T08:52:11.166Z,23.58
2022-10-02T08:55:00.420Z,13.07
2022-10-02T08:57:55.587Z,9.65
2022-10-02T09:00:25.229Z,13.85
2022-10-02T09:03:29.066Z,12.02
2022-10-02T09:06:28.668Z,13.00
2022-10-02T09:09:24.106Z,8.80
2022-10-02T09:12:33.259Z,25.58
2022-10-02T09:15:14.170Z,18.77
2022-10-02T09:18:10.144Z,16.95
2022-10-02T09:20:58.654Z,11.60
2022-10-02T09:23:56.118Z,8.50
2022-10-02T09:26:32.449Z,9.38
2022-10-02T09:29:41.677Z,244.57
2022-10-02T09:32:43.908Z,333.63
2022-10-02T09:35:40.105Z,339.42
2022-10-02T09:38:39.281Z,260.02
2022-10-02T09:41:56.982Z,157.90
2022-10-02T09:44:51.438Z,136.77
2022-10-02T09:48:04.064Z,128.77
2022-10-02T09:51:01.483Z,129.40
2022-10-02T09:53:59.588Z,119.88
2022-10-02T09:56:55.268Z,126.45
2022-10-02T10:00:09.774Z,108.45
2022-10-02T10:03:05.060Z,102.73
2022-10-02T10:06:06.434Z,98.63
2022-10-02T10:08:51.122Z,107.63
2022-10-02T10:11:45.736Z,106.13
2022-10-02T10:14:38.407Z,96.32
2022-10-02T10:17:29.103Z,97.43
2022-10-02T10:20:30.856Z,101.80
2022-10-02T10:23:20.728Z,88.70
2022-10-02T10:26:11.419Z,82.82
2022-10-02T10:29:16.369Z,86.13
2022-10-02T10:32:19.208Z,78.60
2022-10-02T10:35:09.917Z,86.32
2022-10-02T10:37:54.362Z,81.63
2022-10-02T10:43:26.348Z,77.30
2022-10-02T10:46:27.916Z,77.40
2022-10-02T10:49:37.276Z,70.05
2022-10-02T10:52:17.052Z,68.40
2022-10-02T10:55:03.896Z,68.40
2022-10-02T10:57:47.157Z,65.40
2022-10-02T11:00:25.293Z,61.75
2022-10-02T11:03:23.728Z,60.70
2022-10-02T11:06:20.625Z,60.45
2022-10-02T11:09:23.294Z,63.30
2022-10-02T11:12:09.678Z,60.42
2022-10-02T11:14:49.762Z,60.13
2022-10-02T11:17:43.657Z,60.25
2022-10-02T11:20:26.821Z,58.93
2022-10-02T11:23:34.788Z,56.67
2022-10-02T11:26:16.551Z,57.38
2022-10-02T11:29:03.439Z,53.10
2022-10-02T11:31:53.386Z,55.88
2022-10-02T11:34:45.536Z,52.38
2022-10-02T11:37:30.595Z,50.85
2022-10-02T11:40:17.649Z,55.22
2022-10-02T11:43:00.461Z,52.15
2022-10-02T11:45:46.890Z,48.03
2022-10-02T11:48:38.528Z,53.75
2022-10-02T11:51:40.328Z,54.28
2022-10-02T11:54:37.814Z,50.05
2022-10-02T11:57:21.649Z,47.15
2022-10-02T12:00:03.447Z,44.05
2022-10-02T12:02:35.638Z,45.38
2022-10-02T12:05:19.129Z,40.20
2022-10-02T12:07:55.764Z,45.15
2022-10-02T12:10:40.140Z,40.47
2022-10-02T12:13:42.498Z,40.00
2022-10-02T12:16:20.657Z,41.25
2022-10-02T12:19:01.549Z,39.97
2022-10-02T12:21:45.279Z,37.58
2022-10-02T12:24:21.600Z,40.22
2022-10-02T12:26:58.395Z,40.33
2022-10-02T12:29:37.297Z,40.58
2022-10-02T12:32:14.687Z,36.22
2022-10-02T12:34:52.995Z,38.72
2022-10-02T12:37:28.372Z,37.72
2022-10-02T12:40:06.122Z,35.20
2022-10-02T12:43:02.302Z,35.25
2022-10-02T12:46:00.006Z,32.60
2022-10-02T12:48:39.367Z,34.42
2022-10-02T12:51:36.736Z,32.78
2022-10-02T12:54:46.797Z,32.13
2022-10-02T12:57:43.144Z,34.10
2022-10-02T13:00:13.707Z,32.05
2022-10-02T13:03:43.685Z,29.75
2022-10-02T13:06:40.734Z,32.17
2022-10-02T13:09:19.716Z,28.98
2022-10-02T13:12:01.218Z,28.90
2022-10-02T13:14:44.945Z,51.58
2022-10-02T13:17:26.305Z,28.38
2022-10-02T13:20:03.568Z,28.25
2022-10-02T13:22:42.553Z,27.85
2022-10-02T13:25:29.812Z,27.50
2022-10-02T13:28:09.736Z,26.65
2022-10-02T13:30:46.278Z,27.45
2022-10-02T13:33:26.031Z,26.20
2022-10-02T13:36:00.848Z,25.83
2022-10-02T13:38:49.207Z,23.88
2022-10-02T13:41:30.475Z,24.75
2022-10-02T13:44:10.794Z,25.40
2022-10-02T13:47:01.805Z,25.13
2022-10-02T13:49:41.795Z,24.67
2022-10-02T13:52:18.239Z,25.10
2022-10-02T13:54:58.828Z,23.45
2022-10-02T13:57:46.794Z,22.23
2022-10-02T14:00:23.703Z,24.67
2022-10-02T14:03:04.091Z,22.23
2022-10-02T14:05:41.718Z,23.35
2022-10-02T14:08:30.564Z,20.92
2022-10-02T14:11:08.653Z,21.08
2022-10-02T14:13:51.747Z,21.67
2022-10-02T14:16:35.589Z,19.20
2022-10-02T14:19:34.424Z,19.63
2022-10-02T14:22:19.184Z,20.08
2022-10-02T14:25:07.896Z,20.60
2022-10-02T14:28:08.155Z,21.85
2022-10-02T14:30:51.117Z,20.25
2022-10-02T14:33:29.137Z,20.27
2022-10-02T14:36:02.839Z,17.65
2022-10-02T14:38:50.186Z,17.48
2022-10-02T14:41:39.587Z,20.08
2022-10-02T14:44:24.421Z,16.17
2022-10-02T14:47:10.958Z,19.08
2022-10-02T14:50:10.515Z,15.65
2022-10-02T14:53:04.374Z,16.70
2022-10-02T14:55:51.960Z,19.60
2022-10-02T14:58:29.748Z,15.70
2022-10-02T15:01:21.303Z,17.70
2022-10-02T15:04:29.916Z,15.60
2022-10-02T15:07:02.336Z,16.50
2022-10-02T15:09:36.922Z,14.20
2022-10-02T15:12:15.284Z,14.52
2022-10-02T15:14:54.932Z,15.65
2022-10-02T15:17:34.859Z,16.65
2022-10-02T15:20:19.018Z,17.35
2022-10-02T15:22:54.356Z,18.55
2022-10-02T15:25:38.664Z,14.82
2022-10-02T15:28:35.305Z,14.55
2022-10-02T15:33:42.301Z,15.27
2022-10-02T15:36:26.706Z,13.40
2022-10-02T15:41:47.265Z,15.25
2022-10-02T15:44:32.754Z,12.27
2022-10-02T15:47:08.233Z,12.73
2022-10-02T15:49:54.392Z,12.73
2022-10-02T15:52:32.345Z,12.07
2022-10-02T15:55:17.259Z,12.23
2022-10-02T15:57:58.957Z,12.52
2022-10-02T16:00:27.227Z,12.85
2022-10-02T16:03:08.921Z,14.30
2022-10-02T16:06:06.835Z,10.80
2022-10-02T16:09:10.336Z,11.50
2022-10-02T16:11:56.256Z,11.50
2022-10-02T16:14:37.757Z,12.73
2022-10-02T16:17:21.672Z,12.80
2022-10-02T16:20:08.013Z,12.52
2022-10-02T16:22:56.121Z,10.05
2022-10-02T16:25:47.479Z,6.97
2022-10-02T16:28:28.277Z,5.18
2022-10-02T16:31:14.112Z,5.07
2022-10-02T16:33:54.876Z,2.60
2022-10-02T16:36:27.396Z,3.67
2022-10-02T16:39:08.804Z,2.58
2022-10-02T16:41:42.005Z,2.30
2022-10-02T16:44:25.805Z,5.30
2022-10-02T16:46:58.619Z,2.65
2022-10-02T16:49:33.414Z,4.50
2022-10-02T16:52:09.812Z,2.95
2022-10-02T16:54:44.827Z,2.40
2022-10-02T16:57:22.371Z,3.17
2022-10-02T16:59:59.907Z,2.50
2022-10-02T17:02:38.527Z,3.78
2022-10-02T17:05:16.209Z,2.58
2022-10-02T17:07:55.904Z,5.15
2022-10-02T17:10:36.635Z,4.55
2022-10-02T17:13:16.652Z,3.83
2022-10-02T17:15:49.546Z,4.20
2022-10-02T17:18:26.465Z,2.55
2022-10-02T17:20:56.397Z,3.00
2022-10-02T17:23:28.197Z,3.15
2022-10-02T17:26:04.505Z,2.75
2022-10-02T17:28:39.898Z,2.70
2022-10-02T17:31:40.369Z,2.55
2022-10-02T17:34:20.376Z,2.35
2022-10-02T17:36:53.689Z,2.55
2022-10-02T17:39:34.552Z,4.33
2022-10-02T17:42:13.122Z,4.15
2022-10-02T17:44:54.024Z,3.20
2022-10-02T17:47:56.454Z,1.77
2022-10-02T17:50:37.738Z,3.42
2022-10-02T17:53:18.100Z,2.58
2022-10-02T17:56:16.512Z,2.85
2022-10-02T17:58:56.239Z,3.25
2022-10-02T18:01:29.970Z,2.60
2022-10-02T18:04:10.942Z,3.63
2022-10-02T18:06:49.008Z,2.75
2022-10-02T18:09:28.513Z,4.20
2022-10-02T18:12:11.067Z,3.03
2022-10-02T18:15:11.741Z,3.97
2022-10-02T18:17:55.613Z,2.80
2022-10-02T18:20:32.468Z,1.92
2022-10-02T18:23:15.272Z,2.50
2022-10-02T18:26:04.468Z,3.78
2022-10-02T18:29:12.211Z,2.47
2022-10-02T18:31:56.910Z,3.80
2022-10-02T18:34:45.772Z,2.47
2022-10-02T18:37:26.957Z,2.35
2022-10-02T18:40:07.415Z,1.83
2022-10-02T18:42:47.937Z,2.22
2022-10-02T18:45:33.747Z,2.40
2022-10-02T18:48:19.681Z,2.55
2022-10-02T18:51:02.348Z,2.78
2022-10-02T18:53:43.899Z,3.50
2022-10-02T18:56:11.756Z,2.75
2022-10-02T18:58:50.825Z,2.15
2022-10-02T19:01:40.605Z,3.03
2022-10-02T19:04:28.616Z,3.33
2022-10-02T19:07:04.056Z,1.95
2022-10-02T19:09:31.805Z,2.92
2022-10-02T19:12:00.634Z,2.13
2022-10-02T19:14:34.817Z,2.72
2022-10-02T19:17:05.027Z,2.53
2022-10-02T19:19:33.546Z,2.50
2022-10-02T19:22:08.714Z,2.42
2022-10-02T19:24:39.565Z,2.60
2022-10-02T19:27:14.526Z,1.95
2022-10-02T19:29:46.291Z,3.05
2022-10-02T19:32:20.605Z,1.88
2022-10-02T19:34:57.176Z,2.90
2022-10-02T19:37:24.840Z,3.30
2022-10-02T19:39:55.960Z,3.05
2022-10-02T19:42:28.298Z,2.40
2022-10-02T19:44:59.401Z,2.78
2022-10-02T19:47:37.424Z,2.28
2022-10-02T19:50:17.307Z,1.92
2022-10-02T19:52:52.113Z,2.42
2022-10-02T19:55:22.370Z,2.58
2022-10-02T19:57:51.062Z,2.40
2022-10-02T20:00:20.004Z,1.80
2022-10-02T20:02:48.880Z,1.80
2022-10-02T20:05:21.585Z,1.90
2022-10-02T20:07:52.049Z,4.10
2022-10-02T20:10:25.109Z,1.85
2022-10-02T20:12:57.165Z,2.40
2022-10-02T20:15:29.656Z,1.38
2022-10-02T20:17:56.759Z,1.77
2022-10-02T20:20:25.261Z,1.95
2022-10-02T20:22:55.903Z,1.63
2022-10-02T20:25:27.015Z,1.40
2022-10-02T20:27:58.354Z,2.97
2022-10-02T20:30:32.425Z,1.98
2022-10-02T20:35:36.078Z,1.50
2022-10-02T20:38:07.056Z,1.67
2022-10-02T20:40:35.816Z,1.30
2022-10-02T20:43:05.920Z,2.40
2022-10-02T20:45:39.578Z,1.88
2022-10-02T20:49:06.893Z,1.83
2022-10-02T20:51:52.350Z,3.65
2022-10-02T20:54:50.333Z,1.92
2022-10-02T20:58:01.221Z,1.92
2022-10-02T21:00:42.854Z,1.75
2022-10-02T21:03:30.793Z,1.83
2022-10-02T21:06:20.524Z,1.70
2022-10-02T21:09:17.689Z,1.92
2022-10-02T21:12:16.015Z,2.90
2022-10-02T21:15:04.602Z,3.10
2022-10-02T21:17:51.404Z,1.65
2022-10-02T21:20:51.606Z,2.58
2022-10-02T21:24:14.797Z,1.48
2022-10-02T21:27:11.477Z,1.20
2022-10-02T21:29:56.672Z,2.50
2022-10-02T21:32:41.003Z,2.10
2022-10-02T21:35:13.556Z,2.03
2022-10-02T21:37:55.109Z,1.55
2022-10-02T21:40:58.268Z,1.52
2022-10-02T21:44:00.690Z,1.65
2022-10-02T21:47:00.015Z,2.40
2022-10-02T21:50:11.398Z,2.80
2022-10-02T21:53:24.320Z,1.42
2022-10-02T21:56:27.580Z,2.10
2022-10-02T21:59:22.456Z,1.58
2022-10-02T22:02:25.530Z,1.05
2022-10-02T22:05:28.606Z,1.60
2022-10-02T22:08:05.582Z,1.17
2022-10-02T22:10:42.436Z,1.70
2022-10-02T22:13:20.605Z,2.55
2022-10-02T22:15:55.629Z,1.75
2022-10-02T22:18:29.743Z,1.15
2022-10-02T22:23:51.528Z,1.13
2022-10-02T22:26:38.778Z,1.27
2022-10-02T22:29:11.848Z,1.45
2022-10-02T22:31:59.800Z,3.88
2022-10-02T22:34:45.343Z,4.40
2022-10-02T22:37:29.344Z,1.75
2022-10-02T22:40:02.463Z,2.00
2022-10-02T22:42:38.589Z,3.53
2022-10-02T22:45:15.056Z,3.10
2022-10-02T22:47:51.598Z,4.07
2022-10-02T22:50:28.754Z,4.50
2022-10-02T22:53:05.854Z,1.60
2022-10-02T22:55:38.575Z,2.03
2022-10-02T22:58:11.432Z,1.23
2022-10-02T23:00:55.317Z,2.53
2022-10-02T23:03:28.551Z,2.67
2022-10-02T23:06:02.227Z,1.40
2022-10-02T23:08:34.271Z,1.23
2022-10-02T23:11:10.548Z,2.00
2022-10-02T23:13:45.161Z,3.15
2022-10-02T23:16:20.200Z,2.67
2022-10-02T23:18:54.387Z,3.28
2022-10-02T23:24:05.637Z,1.23
2022-10-02T23:26:37.236Z,1.27
2022-10-02T23:29:18.607Z,1.88
2022-10-02T23:31:53.999Z,3.05
2022-10-02T23:34:33.021Z,1.60
2022-10-02T23:37:10.971Z,1.70
2022-10-02T23:39:45.973Z,2.08
2022-10-02T23:42:19.221Z,2.03
2022-10-02T23:44:51.718Z,1.52
2022-10-02T23:47:27.036Z,1.70
2022-10-02T23:49:55.579Z,2.00
2022-10-02T23:53:02.350Z,1.92
2022-10-02T23:55:52.407Z,2.67
2022-10-02T23:58:39.337Z,1.30
